Aérodrome :
LOGIN :

S'inscrire | Disclaimer

   EN    FR    IT 

 










Légende :    VFR   VFR Marginal   IFR   IFR Intensif   IFR Très Intensif
Visi : 
Plafond : 
>= 8 km
>= 3000ft
5 à 8 km
1000 à 3000 ft
1500m à 5 km
500 à 1000 ft
800 à 1500m
200 à 500 ft
< 800m
< 200 ft
Symboles :   Orages  Brouillard  Fortes neiges  Fortes précipitations  Vent > 20 kt
SIGMETs :   Divers  Orages  Givrage  Turbulence  Onde Orograph.  Cendres Volcan.







- Altitude de l'aérodrome : 102 ft
- Code IATA : CNG
- Voir les cartes d'approche


LFBG - Cognac

DERNIER METAR :
  • 171000Z AUTO VRB02KT CAVOK 18/14 Q1018 NOSIG

METARs EXPIRÉS :
  • 170930Z AUTO 10003KT 030V160 9999 FEW009 17/14 Q1018 NOSIG
  • 170900Z AUTO 08004KT 050V110 CAVOK 16/13 Q1018 NOSIG
  • 170830Z AUTO 06003KT 030V100 CAVOK 15/13 Q1018 NOSIG
  • 170800Z AUTO VRB02KT CAVOK 14/12 Q1018 NOSIG
  • 170730Z AUTO 00000KT 9999 4400 NSC 14/12 Q1018 NOSIG

TAF TAF LFBG
Valide du 17 à 09h jusqu'au 18 à 09h UTC


170800Z 1709/1809 05005KT CAVOK
TEMPO 1710/1718 BKN030
Pas de NOTAMs connus pour ce terrain.



MET'MAP, la Météo Aéronautique d'un coup d'oeil ! - Copyright ORBIFLY Décembre 2007 - Disclaimer

ORBIFLY MET'MAP TEAM :

Programmation & Développement : Alexandra Zaïnal
Conception & Développement : Baudouin d'Aumeries
Co-Programmation & Développement : Marc-Olivier Méhu
Soutien technique & logistique : Manuel Goepfert

Contact : metmap@orbifly.com




SOURCES & CREDITS :

   NOAA